sensor_id;sensor_type;location;lat;lon;timestamp;temperature;humidity
20091;DHT22;10205;49.678;6.560;2023-08-08T00:01:49;21.70;55.60
20091;DHT22;10205;49.678;6.560;2023-08-08T00:04:17;21.70;55.60
20091;DHT22;10205;49.678;6.560;2023-08-08T00:06:45;21.60;55.70
20091;DHT22;10205;49.678;6.560;2023-08-08T00:09:12;21.60;55.70
20091;DHT22;10205;49.678;6.560;2023-08-08T00:11:40;21.50;55.70
20091;DHT22;10205;49.678;6.560;2023-08-08T00:14:07;21.50;55.80
20091;DHT22;10205;49.678;6.560;2023-08-08T00:16:35;21.40;55.80
20091;DHT22;10205;49.678;6.560;2023-08-08T00:19:02;21.40;55.90
20091;DHT22;10205;49.678;6.560;2023-08-08T00:21:31;21.40;55.90
20091;DHT22;10205;49.678;6.560;2023-08-08T00:23:59;21.30;56.00
20091;DHT22;10205;49.678;6.560;2023-08-08T00:26:26;21.30;56.00
20091;DHT22;10205;49.678;6.560;2023-08-08T00:28:53;21.30;56.00
20091;DHT22;10205;49.678;6.560;2023-08-08T00:31:21;21.20;56.10
20091;DHT22;10205;49.678;6.560;2023-08-08T00:33:48;21.20;56.10
20091;DHT22;10205;49.678;6.560;2023-08-08T00:36:15;21.10;56.10
20091;DHT22;10205;49.678;6.560;2023-08-08T00:38:44;21.10;56.20
20091;DHT22;10205;49.678;6.560;2023-08-08T00:41:12;21.10;56.30
20091;DHT22;10205;49.678;6.560;2023-08-08T00:43:39;21.00;56.30
20091;DHT22;10205;49.678;6.560;2023-08-08T00:46:07;21.00;56.30
20091;DHT22;10205;49.678;6.560;2023-08-08T00:48:34;21.00;56.30
20091;DHT22;10205;49.678;6.560;2023-08-08T00:51:02;20.90;56.30
20091;DHT22;10205;49.678;6.560;2023-08-08T00:53:30;20.90;56.40
20091;DHT22;10205;49.678;6.560;2023-08-08T00:55:59;20.80;56.40
20091;DHT22;10205;49.678;6.560;2023-08-08T00:58:27;20.80;56.50
20091;DHT22;10205;49.678;6.560;2023-08-08T01:00:55;20.70;56.40
20091;DHT22;10205;49.678;6.560;2023-08-08T01:03:25;20.80;56.50
20091;DHT22;10205;49.678;6.560;2023-08-08T01:05:59;20.70;56.50
20091;DHT22;10205;49.678;6.560;2023-08-08T01:08:37;20.70;56.70
20091;DHT22;10205;49.678;6.560;2023-08-08T01:11:11;20.60;56.60
20091;DHT22;10205;49.678;6.560;2023-08-08T01:13:40;20.60;56.70
20091;DHT22;10205;49.678;6.560;2023-08-08T01:16:09;20.50;56.60
20091;DHT22;10205;49.678;6.560;2023-08-08T01:18:38;20.50;56.60
20091;DHT22;10205;49.678;6.560;2023-08-08T01:21:08;20.50;56.70
20091;DHT22;10205;49.678;6.560;2023-08-08T01:23:43;20.40;56.80
20091;DHT22;10205;49.678;6.560;2023-08-08T01:26:19;20.40;56.90
20091;DHT22;10205;49.678;6.560;2023-08-08T01:28:48;20.40;56.80
20091;DHT22;10205;49.678;6.560;2023-08-08T01:31:19;20.30;56.80
20091;DHT22;10205;49.678;6.560;2023-08-08T01:33:47;20.30;56.80
20091;DHT22;10205;49.678;6.560;2023-08-08T01:36:20;20.20;56.90
20091;DHT22;10205;49.678;6.560;2023-08-08T01:38:56;20.20;57.00
20091;DHT22;10205;49.678;6.560;2023-08-08T01:41:32;20.20;57.00
20091;DHT22;10205;49.678;6.560;2023-08-08T01:44:01;20.10;57.00
20091;DHT22;10205;49.678;6.560;2023-08-08T01:46:29;20.10;57.00
20091;DHT22;10205;49.678;6.560;2023-08-08T01:48:58;20.10;57.00
20091;DHT22;10205;49.678;6.560;2023-08-08T01:51:26;20.00;57.10
20091;DHT22;10205;49.678;6.560;2023-08-08T01:53:54;20.00;57.10
20091;DHT22;10205;49.678;6.560;2023-08-08T01:56:21;20.00;57.20
20091;DHT22;10205;49.678;6.560;2023-08-08T01:58:50;19.90;57.20
20091;DHT22;10205;49.678;6.560;2023-08-08T02:01:17;19.90;57.30
20091;DHT22;10205;49.678;6.560;2023-08-08T02:03:45;19.90;57.30
20091;DHT22;10205;49.678;6.560;2023-08-08T02:06:12;19.80;57.30
20091;DHT22;10205;49.678;6.560;2023-08-08T02:08:40;19.80;57.40
20091;DHT22;10205;49.678;6.560;2023-08-08T02:11:07;19.70;57.40
20091;DHT22;10205;49.678;6.560;2023-08-08T02:13:34;19.70;57.40
20091;DHT22;10205;49.678;6.560;2023-08-08T02:16:03;19.70;57.50
20091;DHT22;10205;49.678;6.560;2023-08-08T02:18:31;19.60;57.50
20091;DHT22;10205;49.678;6.560;2023-08-08T02:20:58;19.60;57.50
20091;DHT22;10205;49.678;6.560;2023-08-08T02:23:26;19.60;57.50
20091;DHT22;10205;49.678;6.560;2023-08-08T02:25:53;19.60;57.60
20091;DHT22;10205;49.678;6.560;2023-08-08T02:28:21;19.50;57.60
20091;DHT22;10205;49.678;6.560;2023-08-08T02:30:48;19.50;57.60
20091;DHT22;10205;49.678;6.560;2023-08-08T02:33:17;19.40;58.30
20091;DHT22;10205;49.678;6.560;2023-08-08T02:35:44;19.40;57.70
20091;DHT22;10205;49.678;6.560;2023-08-08T02:38:12;19.40;57.70
20091;DHT22;10205;49.678;6.560;2023-08-08T02:40:39;19.40;57.70
20091;DHT22;10205;49.678;6.560;2023-08-08T02:43:06;19.30;57.80
20091;DHT22;10205;49.678;6.560;2023-08-08T02:45:34;19.30;57.80
20091;DHT22;10205;49.678;6.560;2023-08-08T02:48:02;19.30;57.80
20091;DHT22;10205;49.678;6.560;2023-08-08T02:50:31;19.20;57.80
20091;DHT22;10205;49.678;6.560;2023-08-08T02:52:59;19.20;57.90
20091;DHT22;10205;49.678;6.560;2023-08-08T02:55:26;19.20;57.90
20091;DHT22;10205;49.678;6.560;2023-08-08T02:57:53;19.20;57.90
20091;DHT22;10205;49.678;6.560;2023-08-08T03:00:21;19.10;57.90
20091;DHT22;10205;49.678;6.560;2023-08-08T03:02:48;19.10;58.00
20091;DHT22;10205;49.678;6.560;2023-08-08T03:05:16;19.00;58.00
20091;DHT22;10205;49.678;6.560;2023-08-08T03:07:44;19.00;58.00
20091;DHT22;10205;49.678;6.560;2023-08-08T03:10:13;19.00;58.10
20091;DHT22;10205;49.678;6.560;2023-08-08T03:12:41;19.00;58.10
20091;DHT22;10205;49.678;6.560;2023-08-08T03:15:08;18.90;58.70
20091;DHT22;10205;49.678;6.560;2023-08-08T03:17:37;18.90;58.10
20091;DHT22;10205;49.678;6.560;2023-08-08T03:20:05;18.90;58.10
20091;DHT22;10205;49.678;6.560;2023-08-08T03:22:33;18.80;58.20
20091;DHT22;10205;49.678;6.560;2023-08-08T03:25:02;18.80;58.10
20091;DHT22;10205;49.678;6.560;2023-08-08T03:27:30;18.70;58.20
20091;DHT22;10205;49.678;6.560;2023-08-08T03:29:58;18.70;58.20
20091;DHT22;10205;49.678;6.560;2023-08-08T03:32:26;18.70;58.20
20091;DHT22;10205;49.678;6.560;2023-08-08T03:34:54;18.70;58.20
20091;DHT22;10205;49.678;6.560;2023-08-08T03:37:22;18.70;58.20
20091;DHT22;10205;49.678;6.560;2023-08-08T03:39:49;18.60;58.20
20091;DHT22;10205;49.678;6.560;2023-08-08T03:42:18;18.60;58.30
20091;DHT22;10205;49.678;6.560;2023-08-08T03:44:45;18.60;58.30
20091;DHT22;10205;49.678;6.560;2023-08-08T03:47:13;18.50;58.20
20091;DHT22;10205;49.678;6.560;2023-08-08T03:49:40;18.50;58.40
20091;DHT22;10205;49.678;6.560;2023-08-08T03:52:07;18.40;58.30
20091;DHT22;10205;49.678;6.560;2023-08-08T03:54:35;18.40;58.40
20091;DHT22;10205;49.678;6.560;2023-08-08T03:57:02;18.40;58.50
20091;DHT22;10205;49.678;6.560;2023-08-08T03:59:32;18.40;58.50
20091;DHT22;10205;49.678;6.560;2023-08-08T04:01:59;18.30;58.50
20091;DHT22;10205;49.678;6.560;2023-08-08T04:04:26;18.30;58.60
20091;DHT22;10205;49.678;6.560;2023-08-08T04:06:54;18.30;58.60
20091;DHT22;10205;49.678;6.560;2023-08-08T04:09:21;18.20;58.60
20091;DHT22;10205;49.678;6.560;2023-08-08T04:11:49;18.20;58.70
20091;DHT22;10205;49.678;6.560;2023-08-08T04:14:16;18.20;58.70
20091;DHT22;10205;49.678;6.560;2023-08-08T04:16:45;18.10;58.70
20091;DHT22;10205;49.678;6.560;2023-08-08T04:19:12;18.20;58.80
20091;DHT22;10205;49.678;6.560;2023-08-08T04:21:39;18.10;58.70
20091;DHT22;10205;49.678;6.560;2023-08-08T04:24:07;18.10;58.70
20091;DHT22;10205;49.678;6.560;2023-08-08T04:26:34;18.00;58.70
20091;DHT22;10205;49.678;6.560;2023-08-08T04:29:02;18.00;58.80
20091;DHT22;10205;49.678;6.560;2023-08-08T04:31:29;18.00;58.80
20091;DHT22;10205;49.678;6.560;2023-08-08T04:33:58;18.00;58.80
20091;DHT22;10205;49.678;6.560;2023-08-08T04:36:26;17.90;58.90
20091;DHT22;10205;49.678;6.560;2023-08-08T04:38:54;17.90;58.90
20091;DHT22;10205;49.678;6.560;2023-08-08T04:41:22;17.90;58.90
20091;DHT22;10205;49.678;6.560;2023-08-08T04:43:49;17.80;58.90
20091;DHT22;10205;49.678;6.560;2023-08-08T04:46:17;17.80;58.90
20091;DHT22;10205;49.678;6.560;2023-08-08T04:48:45;17.80;59.00
20091;DHT22;10205;49.678;6.560;2023-08-08T04:51:13;17.80;59.00
20091;DHT22;10205;49.678;6.560;2023-08-08T04:53:41;17.70;59.00
20091;DHT22;10205;49.678;6.560;2023-08-08T04:56:08;17.70;59.10
20091;DHT22;10205;49.678;6.560;2023-08-08T04:58:35;17.60;59.10
20091;DHT22;10205;49.678;6.560;2023-08-08T05:01:03;17.60;59.10
20091;DHT22;10205;49.678;6.560;2023-08-08T05:03:30;17.50;59.20
20091;DHT22;10205;49.678;6.560;2023-08-08T05:05:58;17.50;59.30
20091;DHT22;10205;49.678;6.560;2023-08-08T05:08:27;17.50;59.40
20091;DHT22;10205;49.678;6.560;2023-08-08T05:10:54;17.40;59.50
20091;DHT22;10205;49.678;6.560;2023-08-08T05:13:21;17.30;59.40
20091;DHT22;10205;49.678;6.560;2023-08-08T05:15:49;17.30;59.70
20091;DHT22;10205;49.678;6.560;2023-08-08T05:18:16;17.20;59.80
20091;DHT22;10205;49.678;6.560;2023-08-08T05:20:43;17.20;59.80
20091;DHT22;10205;49.678;6.560;2023-08-08T05:23:11;17.10;59.90
20091;DHT22;10205;49.678;6.560;2023-08-08T05:25:40;17.10;60.00
20091;DHT22;10205;49.678;6.560;2023-08-08T05:28:07;17.10;60.30
20091;DHT22;10205;49.678;6.560;2023-08-08T05:30:35;17.00;60.30
20091;DHT22;10205;49.678;6.560;2023-08-08T05:33:03;17.00;60.70
20091;DHT22;10205;49.678;6.560;2023-08-08T05:35:30;16.90;60.60
20091;DHT22;10205;49.678;6.560;2023-08-08T05:37:58;16.90;60.70
20091;DHT22;10205;49.678;6.560;2023-08-08T05:40:25;16.90;60.70
20091;DHT22;10205;49.678;6.560;2023-08-08T05:42:54;16.90;60.90
20091;DHT22;10205;49.678;6.560;2023-08-08T05:45:21;16.80;60.90
20091;DHT22;10205;49.678;6.560;2023-08-08T05:47:49;16.80;60.90
20091;DHT22;10205;49.678;6.560;2023-08-08T05:50:16;16.80;60.90
20091;DHT22;10205;49.678;6.560;2023-08-08T05:52:44;16.80;61.90
20091;DHT22;10205;49.678;6.560;2023-08-08T05:55:12;16.80;61.00
20091;DHT22;10205;49.678;6.560;2023-08-08T05:57:39;16.80;61.00
20091;DHT22;10205;49.678;6.560;2023-08-08T06:00:10;16.90;61.00
20091;DHT22;10205;49.678;6.560;2023-08-08T06:02:38;16.80;61.10
20091;DHT22;10205;49.678;6.560;2023-08-08T06:05:07;16.90;61.10
20091;DHT22;10205;49.678;6.560;2023-08-08T06:07:35;16.80;61.50
20091;DHT22;10205;49.678;6.560;2023-08-08T06:10:03;16.90;61.40
20091;DHT22;10205;49.678;6.560;2023-08-08T06:12:31;16.90;61.40
20091;DHT22;10205;49.678;6.560;2023-08-08T06:14:58;16.90;61.20
20091;DHT22;10205;49.678;6.560;2023-08-08T06:17:27;16.90;61.30
20091;DHT22;10205;49.678;6.560;2023-08-08T06:19:55;16.90;61.40
20091;DHT22;10205;49.678;6.560;2023-08-08T06:22:23;16.90;62.00
20091;DHT22;10205;49.678;6.560;2023-08-08T06:24:51;16.90;61.70
20091;DHT22;10205;49.678;6.560;2023-08-08T06:27:18;17.00;62.30
20091;DHT22;10205;49.678;6.560;2023-08-08T06:29:46;17.00;62.10
20091;DHT22;10205;49.678;6.560;2023-08-08T06:32:15;17.00;61.80
20091;DHT22;10205;49.678;6.560;2023-08-08T06:34:44;17.00;61.80
20091;DHT22;10205;49.678;6.560;2023-08-08T06:37:12;17.00;62.40
20091;DHT22;10205;49.678;6.560;2023-08-08T06:39:39;17.10;62.30
20091;DHT22;10205;49.678;6.560;2023-08-08T06:42:08;17.10;62.50
20091;DHT22;10205;49.678;6.560;2023-08-08T06:44:41;17.10;62.30
20091;DHT22;10205;49.678;6.560;2023-08-08T06:47:09;17.10;63.40
20091;DHT22;10205;49.678;6.560;2023-08-08T06:49:37;17.20;62.90
20091;DHT22;10205;49.678;6.560;2023-08-08T06:52:07;17.20;62.80
20091;DHT22;10205;49.678;6.560;2023-08-08T06:54:34;17.20;63.20
20091;DHT22;10205;49.678;6.560;2023-08-08T06:57:02;17.30;63.10
20091;DHT22;10205;49.678;6.560;2023-08-08T06:59:30;17.30;62.70
20091;DHT22;10205;49.678;6.560;2023-08-08T07:01:57;17.40;62.60
20091;DHT22;10205;49.678;6.560;2023-08-08T07:04:25;17.40;62.90
20091;DHT22;10205;49.678;6.560;2023-08-08T07:06:52;17.40;63.00
20091;DHT22;10205;49.678;6.560;2023-08-08T07:09:21;17.50;63.00
20091;DHT22;10205;49.678;6.560;2023-08-08T07:11:49;17.50;63.20
20091;DHT22;10205;49.678;6.560;2023-08-08T07:14:16;17.60;63.00
20091;DHT22;10205;49.678;6.560;2023-08-08T07:16:44;17.60;63.20
20091;DHT22;10205;49.678;6.560;2023-08-08T07:19:11;17.70;63.30
20091;DHT22;10205;49.678;6.560;2023-08-08T07:21:39;17.70;63.20
20091;DHT22;10205;49.678;6.560;2023-08-08T07:24:07;17.80;63.20
20091;DHT22;10205;49.678;6.560;2023-08-08T07:26:37;17.80;63.30
20091;DHT22;10205;49.678;6.560;2023-08-08T07:29:05;17.90;63.30
20091;DHT22;10205;49.678;6.560;2023-08-08T07:31:32;17.90;63.10
20091;DHT22;10205;49.678;6.560;2023-08-08T07:34:00;18.00;63.20
20091;DHT22;10205;49.678;6.560;2023-08-08T07:36:27;18.00;63.20
20091;DHT22;10205;49.678;6.560;2023-08-08T07:38:55;18.10;63.10
20091;DHT22;10205;49.678;6.560;2023-08-08T07:41:25;18.10;62.90
20091;DHT22;10205;49.678;6.560;2023-08-08T07:43:54;18.20;63.00
20091;DHT22;10205;49.678;6.560;2023-08-08T07:46:22;18.30;63.10
20091;DHT22;10205;49.678;6.560;2023-08-08T07:48:50;18.30;63.00
20091;DHT22;10205;49.678;6.560;2023-08-08T07:51:17;18.40;62.90
20091;DHT22;10205;49.678;6.560;2023-08-08T07:53:45;18.40;62.90
20091;DHT22;10205;49.678;6.560;2023-08-08T07:56:14;18.50;62.90
20091;DHT22;10205;49.678;6.560;2023-08-08T07:58:41;18.50;62.80
20091;DHT22;10205;49.678;6.560;2023-08-08T08:01:11;18.60;62.90
20091;DHT22;10205;49.678;6.560;2023-08-08T08:03:39;18.70;63.30
20091;DHT22;10205;49.678;6.560;2023-08-08T08:06:07;18.70;63.00
20091;DHT22;10205;49.678;6.560;2023-08-08T08:08:34;18.80;63.10
20091;DHT22;10205;49.678;6.560;2023-08-08T08:11:02;18.90;63.00
20091;DHT22;10205;49.678;6.560;2023-08-08T08:13:30;19.00;63.10
20091;DHT22;10205;49.678;6.560;2023-08-08T08:15:57;19.10;62.90
20091;DHT22;10205;49.678;6.560;2023-08-08T08:18:26;19.10;63.10
20091;DHT22;10205;49.678;6.560;2023-08-08T08:20:54;19.20;62.70
20091;DHT22;10205;49.678;6.560;2023-08-08T08:23:22;19.30;62.70
20091;DHT22;10205;49.678;6.560;2023-08-08T08:25:50;19.40;62.80
20091;DHT22;10205;49.678;6.560;2023-08-08T08:28:18;19.40;62.70
20091;DHT22;10205;49.678;6.560;2023-08-08T08:30:48;19.50;62.60
20091;DHT22;10205;49.678;6.560;2023-08-08T08:33:15;19.60;62.40
20091;DHT22;10205;49.678;6.560;2023-08-08T08:35:45;19.60;62.30
20091;DHT22;10205;49.678;6.560;2023-08-08T08:38:13;19.70;62.30
20091;DHT22;10205;49.678;6.560;2023-08-08T08:40:41;19.80;62.10
20091;DHT22;10205;49.678;6.560;2023-08-08T08:43:11;19.90;61.90
20091;DHT22;10205;49.678;6.560;2023-08-08T08:45:43;19.90;61.90
20091;DHT22;10205;49.678;6.560;2023-08-08T08:48:16;20.00;62.10
20091;DHT22;10205;49.678;6.560;2023-08-08T08:50:48;20.10;61.50
20091;DHT22;10205;49.678;6.560;2023-08-08T08:53:15;20.10;61.30
20091;DHT22;10205;49.678;6.560;2023-08-08T08:55:44;20.20;61.20
20091;DHT22;10205;49.678;6.560;2023-08-08T08:58:14;20.30;61.20
20091;DHT22;10205;49.678;6.560;2023-08-08T09:00:44;20.30;61.20
20091;DHT22;10205;49.678;6.560;2023-08-08T09:03:13;20.30;61.10
20091;DHT22;10205;49.678;6.560;2023-08-08T09:05:42;20.40;60.90
20091;DHT22;10205;49.678;6.560;2023-08-08T09:08:16;20.50;60.80
20091;DHT22;10205;49.678;6.560;2023-08-08T09:10:43;20.60;60.10
20091;DHT22;10205;49.678;6.560;2023-08-08T09:13:12;20.60;60.10
20091;DHT22;10205;49.678;6.560;2023-08-08T09:15:40;20.70;60.30
20091;DHT22;10205;49.678;6.560;2023-08-08T09:18:08;20.70;60.00
20091;DHT22;10205;49.678;6.560;2023-08-08T09:20:35;20.80;60.20
20091;DHT22;10205;49.678;6.560;2023-08-08T09:23:02;20.80;60.30
20091;DHT22;10205;49.678;6.560;2023-08-08T09:25:35;20.90;59.90
20091;DHT22;10205;49.678;6.560;2023-08-08T09:28:03;20.90;59.60
20091;DHT22;10205;49.678;6.560;2023-08-08T09:30:31;21.00;59.80
20091;DHT22;10205;49.678;6.560;2023-08-08T09:32:59;21.00;59.70
20091;DHT22;10205;49.678;6.560;2023-08-08T09:35:29;21.10;59.70
20091;DHT22;10205;49.678;6.560;2023-08-08T09:37:56;21.20;59.60
20091;DHT22;10205;49.678;6.560;2023-08-08T09:40:24;21.20;59.40
20091;DHT22;10205;49.678;6.560;2023-08-08T09:42:52;21.30;59.10
20091;DHT22;10205;49.678;6.560;2023-08-08T09:45:24;21.40;58.90
20091;DHT22;10205;49.678;6.560;2023-08-08T09:47:52;21.50;58.70
20091;DHT22;10205;49.678;6.560;2023-08-08T09:50:20;21.50;58.40
20091;DHT22;10205;49.678;6.560;2023-08-08T09:52:47;21.60;58.50
20091;DHT22;10205;49.678;6.560;2023-08-08T09:55:16;21.60;58.70
20091;DHT22;10205;49.678;6.560;2023-08-08T09:57:44;21.70;58.70
20091;DHT22;10205;49.678;6.560;2023-08-08T10:00:16;21.80;58.60
20091;DHT22;10205;49.678;6.560;2023-08-08T10:02:46;21.80;58.30
20091;DHT22;10205;49.678;6.560;2023-08-08T10:05:14;21.90;58.00
20091;DHT22;10205;49.678;6.560;2023-08-08T10:07:42;22.00;58.20
20091;DHT22;10205;49.678;6.560;2023-08-08T10:10:10;22.10;58.10
20091;DHT22;10205;49.678;6.560;2023-08-08T10:12:38;22.20;57.70
20091;DHT22;10205;49.678;6.560;2023-08-08T10:15:08;22.20;57.70
20091;DHT22;10205;49.678;6.560;2023-08-08T10:17:39;22.30;57.80
20091;DHT22;10205;49.678;6.560;2023-08-08T10:20:09;22.40;56.80
20091;DHT22;10205;49.678;6.560;2023-08-08T10:22:41;22.40;57.00
20091;DHT22;10205;49.678;6.560;2023-08-08T10:25:18;22.60;57.10
20091;DHT22;10205;49.678;6.560;2023-08-08T10:27:46;22.60;56.30
20091;DHT22;10205;49.678;6.560;2023-08-08T10:30:14;22.80;56.80
20091;DHT22;10205;49.678;6.560;2023-08-08T10:32:44;22.80;56.60
20091;DHT22;10205;49.678;6.560;2023-08-08T10:35:13;22.90;56.30
20091;DHT22;10205;49.678;6.560;2023-08-08T10:37:40;23.00;56.30
20091;DHT22;10205;49.678;6.560;2023-08-08T10:40:20;23.00;56.20
20091;DHT22;10205;49.678;6.560;2023-08-08T10:42:48;23.20;56.00
20091;DHT22;10205;49.678;6.560;2023-08-08T10:45:18;23.30;55.70
20091;DHT22;10205;49.678;6.560;2023-08-08T10:47:47;23.40;55.70
20091;DHT22;10205;49.678;6.560;2023-08-08T10:50:16;23.40;55.60
20091;DHT22;10205;49.678;6.560;2023-08-08T10:52:54;23.50;55.60
20091;DHT22;10205;49.678;6.560;2023-08-08T10:55:24;23.50;55.20
20091;DHT22;10205;49.678;6.560;2023-08-08T10:57:57;23.60;54.90
20091;DHT22;10205;49.678;6.560;2023-08-08T11:00:28;23.70;53.80
20091;DHT22;10205;49.678;6.560;2023-08-08T11:02:59;23.70;53.30
20091;DHT22;10205;49.678;6.560;2023-08-08T11:05:29;23.80;53.50
20091;DHT22;10205;49.678;6.560;2023-08-08T11:07:57;23.80;53.80
20091;DHT22;10205;49.678;6.560;2023-08-08T11:10:26;23.80;54.00
20091;DHT22;10205;49.678;6.560;2023-08-08T11:12:57;23.90;54.80
20091;DHT22;10205;49.678;6.560;2023-08-08T11:15:27;23.90;54.10
20091;DHT22;10205;49.678;6.560;2023-08-08T11:17:55;24.00;54.40
20091;DHT22;10205;49.678;6.560;2023-08-08T11:20:25;24.00;53.70
20091;DHT22;10205;49.678;6.560;2023-08-08T11:22:57;24.10;53.80
20091;DHT22;10205;49.678;6.560;2023-08-08T11:25:26;24.10;53.60
20091;DHT22;10205;49.678;6.560;2023-08-08T11:27:56;24.10;53.50
20091;DHT22;10205;49.678;6.560;2023-08-08T11:30:31;24.20;53.70
20091;DHT22;10205;49.678;6.560;2023-08-08T11:33:01;24.20;53.50
20091;DHT22;10205;49.678;6.560;2023-08-08T11:35:30;24.30;53.90
20091;DHT22;10205;49.678;6.560;2023-08-08T11:38:00;24.40;53.60
20091;DHT22;10205;49.678;6.560;2023-08-08T11:40:30;24.40;52.80
20091;DHT22;10205;49.678;6.560;2023-08-08T11:42:59;24.40;53.10
20091;DHT22;10205;49.678;6.560;2023-08-08T11:45:27;24.50;53.10
20091;DHT22;10205;49.678;6.560;2023-08-08T11:47:55;24.60;53.10
20091;DHT22;10205;49.678;6.560;2023-08-08T11:50:25;24.60;52.60
20091;DHT22;10205;49.678;6.560;2023-08-08T11:52:56;24.60;53.00
20091;DHT22;10205;49.678;6.560;2023-08-08T11:55:27;24.70;52.50
20091;DHT22;10205;49.678;6.560;2023-08-08T11:57:55;24.80;52.70
20091;DHT22;10205;49.678;6.560;2023-08-08T12:00:27;24.80;52.90
20091;DHT22;10205;49.678;6.560;2023-08-08T12:02:55;24.80;52.70
20091;DHT22;10205;49.678;6.560;2023-08-08T12:05:27;24.90;52.80
20091;DHT22;10205;49.678;6.560;2023-08-08T12:07:58;24.90;52.40
20091;DHT22;10205;49.678;6.560;2023-08-08T12:10:26;24.90;52.30
20091;DHT22;10205;49.678;6.560;2023-08-08T12:12:55;24.90;52.40
20091;DHT22;10205;49.678;6.560;2023-08-08T12:15:28;25.00;52.10
20091;DHT22;10205;49.678;6.560;2023-08-08T12:17:57;25.00;52.30
20091;DHT22;10205;49.678;6.560;2023-08-08T12:20:27;25.00;52.50
20091;DHT22;10205;49.678;6.560;2023-08-08T12:22:57;25.00;51.20
20091;DHT22;10205;49.678;6.560;2023-08-08T12:25:25;25.00;51.10
20091;DHT22;10205;49.678;6.560;2023-08-08T12:27:52;25.00;51.50
20091;DHT22;10205;49.678;6.560;2023-08-08T12:30:19;25.00;51.20
20091;DHT22;10205;49.678;6.560;2023-08-08T12:32:47;25.00;51.50
20091;DHT22;10205;49.678;6.560;2023-08-08T12:35:14;25.00;51.30
20091;DHT22;10205;49.678;6.560;2023-08-08T12:37:42;25.00;52.10
20091;DHT22;10205;49.678;6.560;2023-08-08T12:40:12;25.00;52.50
20091;DHT22;10205;49.678;6.560;2023-08-08T12:42:40;25.00;52.40
20091;DHT22;10205;49.678;6.560;2023-08-08T12:45:08;25.10;52.90
20091;DHT22;10205;49.678;6.560;2023-08-08T12:47:36;25.20;53.00
20091;DHT22;10205;49.678;6.560;2023-08-08T12:50:05;25.40;52.70
20091;DHT22;10205;49.678;6.560;2023-08-08T12:52:33;25.50;53.00
20091;DHT22;10205;49.678;6.560;2023-08-08T12:55:01;25.60;52.80
20091;DHT22;10205;49.678;6.560;2023-08-08T12:57:30;25.70;52.80
20091;DHT22;10205;49.678;6.560;2023-08-08T12:59:58;25.90;52.50
20091;DHT22;10205;49.678;6.560;2023-08-08T13:02:25;26.00;52.60
20091;DHT22;10205;49.678;6.560;2023-08-08T13:04:53;26.20;52.40
20091;DHT22;10205;49.678;6.560;2023-08-08T13:07:21;26.20;52.10
20091;DHT22;10205;49.678;6.560;2023-08-08T13:09:48;26.30;51.60
20091;DHT22;10205;49.678;6.560;2023-08-08T13:12:15;26.40;50.80
20091;DHT22;10205;49.678;6.560;2023-08-08T13:14:44;26.40;50.60
20091;DHT22;10205;49.678;6.560;2023-08-08T13:17:12;26.40;50.00
20091;DHT22;10205;49.678;6.560;2023-08-08T13:19:40;26.40;49.60
20091;DHT22;10205;49.678;6.560;2023-08-08T13:22:07;26.40;49.80
20091;DHT22;10205;49.678;6.560;2023-08-08T13:24:35;26.40;49.90
20091;DHT22;10205;49.678;6.560;2023-08-08T13:27:02;26.40;50.00
20091;DHT22;10205;49.678;6.560;2023-08-08T13:29:30;26.30;49.60
20091;DHT22;10205;49.678;6.560;2023-08-08T13:31:59;26.30;49.60
20091;DHT22;10205;49.678;6.560;2023-08-08T13:34:26;26.30;50.00
20091;DHT22;10205;49.678;6.560;2023-08-08T13:36:54;26.20;49.40
20091;DHT22;10205;49.678;6.560;2023-08-08T13:39:21;26.20;49.80
20091;DHT22;10205;49.678;6.560;2023-08-08T13:41:49;26.10;49.60
20091;DHT22;10205;49.678;6.560;2023-08-08T13:44:16;26.10;49.70
20091;DHT22;10205;49.678;6.560;2023-08-08T13:46:43;26.10;50.00
20091;DHT22;10205;49.678;6.560;2023-08-08T13:49:12;26.10;50.10
20091;DHT22;10205;49.678;6.560;2023-08-08T13:51:40;26.10;50.30
20091;DHT22;10205;49.678;6.560;2023-08-08T13:54:08;26.10;50.30
20091;DHT22;10205;49.678;6.560;2023-08-08T13:56:36;26.20;50.50
20091;DHT22;10205;49.678;6.560;2023-08-08T13:59:03;26.20;50.60
20091;DHT22;10205;49.678;6.560;2023-08-08T14:01:31;26.20;50.50
20091;DHT22;10205;49.678;6.560;2023-08-08T14:03:59;26.30;50.50
20091;DHT22;10205;49.678;6.560;2023-08-08T14:06:27;26.40;50.70
20091;DHT22;10205;49.678;6.560;2023-08-08T14:08:55;26.40;50.60
20091;DHT22;10205;49.678;6.560;2023-08-08T14:11:23;26.40;50.70
20091;DHT22;10205;49.678;6.560;2023-08-08T14:13:50;26.50;50.60
20091;DHT22;10205;49.678;6.560;2023-08-08T14:16:18;26.50;50.50
20091;DHT22;10205;49.678;6.560;2023-08-08T14:18:45;26.60;50.60
20091;DHT22;10205;49.678;6.560;2023-08-08T14:21:15;26.60;50.40
20091;DHT22;10205;49.678;6.560;2023-08-08T14:23:44;26.70;50.30
20091;DHT22;10205;49.678;6.560;2023-08-08T14:26:13;26.70;50.30
20091;DHT22;10205;49.678;6.560;2023-08-08T14:28:40;26.80;50.40
20091;DHT22;10205;49.678;6.560;2023-08-08T14:31:08;26.80;50.10
20091;DHT22;10205;49.678;6.560;2023-08-08T14:33:35;26.80;49.90
20091;DHT22;10205;49.678;6.560;2023-08-08T14:36:03;26.90;50.10
20091;DHT22;10205;49.678;6.560;2023-08-08T14:38:34;26.90;50.00
20091;DHT22;10205;49.678;6.560;2023-08-08T14:41:04;27.00;49.70
20091;DHT22;10205;49.678;6.560;2023-08-08T14:43:31;27.00;49.80
20091;DHT22;10205;49.678;6.560;2023-08-08T14:45:59;27.00;49.90
20091;DHT22;10205;49.678;6.560;2023-08-08T14:48:26;27.00;49.80
20091;DHT22;10205;49.678;6.560;2023-08-08T14:50:54;27.10;50.00
20091;DHT22;10205;49.678;6.560;2023-08-08T14:53:21;27.10;49.80
20091;DHT22;10205;49.678;6.560;2023-08-08T14:55:49;27.10;49.70
20091;DHT22;10205;49.678;6.560;2023-08-08T14:58:18;27.20;49.60
20091;DHT22;10205;49.678;6.560;2023-08-08T15:00:46;27.20;49.40
20091;DHT22;10205;49.678;6.560;2023-08-08T15:03:14;27.20;49.50
20091;DHT22;10205;49.678;6.560;2023-08-08T15:05:42;27.30;49.60
20091;DHT22;10205;49.678;6.560;2023-08-08T15:08:11;27.30;49.20
20091;DHT22;10205;49.678;6.560;2023-08-08T15:10:38;27.30;49.10
20091;DHT22;10205;49.678;6.560;2023-08-08T15:13:07;27.30;48.90
20091;DHT22;10205;49.678;6.560;2023-08-08T15:15:36;27.30;49.40
20091;DHT22;10205;49.678;6.560;2023-08-08T15:18:04;27.30;48.30
20091;DHT22;10205;49.678;6.560;2023-08-08T15:20:31;27.30;48.90
20091;DHT22;10205;49.678;6.560;2023-08-08T15:22:58;27.30;48.80
20091;DHT22;10205;49.678;6.560;2023-08-08T15:25:26;27.40;48.20
20091;DHT22;10205;49.678;6.560;2023-08-08T15:27:53;27.40;48.20
20091;DHT22;10205;49.678;6.560;2023-08-08T15:30:21;27.40;48.50
20091;DHT22;10205;49.678;6.560;2023-08-08T15:32:50;27.30;48.00
20091;DHT22;10205;49.678;6.560;2023-08-08T15:35:17;27.30;48.50
20091;DHT22;10205;49.678;6.560;2023-08-08T15:37:45;27.30;48.40